createdAt,value
2023-04-14T00:00:50.528Z,3.00
2023-04-14T00:03:18.351Z,3.20
2023-04-14T00:05:45.455Z,3.20
2023-04-14T00:08:12.190Z,2.60
2023-04-14T00:10:41.818Z,2.80
2023-04-14T00:13:08.856Z,3.10
2023-04-14T00:15:36.010Z,3.40
2023-04-14T00:18:03.114Z,3.10
2023-04-14T00:20:30.127Z,3.30
2023-04-14T00:27:47.995Z,2.90
2023-04-14T00:30:15.569Z,3.20
2023-04-14T00:32:42.419Z,2.90
2023-04-14T00:35:09.392Z,2.90
2023-04-14T00:37:38.554Z,3.00
2023-04-14T00:40:06.804Z,2.70
2023-04-14T00:42:42.174Z,3.20
2023-04-14T00:45:09.483Z,3.00
2023-04-14T00:47:37.667Z,3.20
2023-04-14T00:50:05.390Z,3.20
2023-04-14T00:52:37.346Z,3.80
2023-04-14T00:55:07.468Z,3.80
2023-04-14T00:57:34.339Z,3.10
2023-04-14T01:00:05.419Z,3.30
2023-04-14T01:02:33.035Z,3.10
2023-04-14T01:05:00.358Z,2.90
2023-04-14T01:07:27.676Z,2.90
2023-04-14T01:09:56.336Z,3.10
2023-04-14T01:12:32.494Z,3.20
2023-04-14T01:15:12.808Z,3.70
2023-04-14T01:17:52.064Z,3.10
2023-04-14T01:20:34.172Z,2.90
2023-04-14T01:23:07.593Z,4.00
2023-04-14T01:25:40.553Z,4.30
2023-04-14T01:28:38.610Z,3.30
2023-04-14T01:31:24.981Z,3.00
2023-04-14T01:34:21.182Z,3.40
2023-04-14T01:36:55.029Z,3.00
2023-04-14T01:39:26.945Z,3.50
2023-04-14T01:41:56.908Z,3.80
2023-04-14T01:44:25.789Z,3.90
2023-04-14T01:46:57.185Z,3.90
2023-04-14T01:49:25.631Z,3.70
2023-04-14T01:51:55.877Z,3.70
2023-04-14T01:54:23.020Z,4.00
2023-04-14T01:56:51.840Z,3.80
2023-04-14T01:59:19.469Z,4.10
2023-04-14T02:01:50.855Z,3.80
2023-04-14T02:04:19.678Z,3.20
2023-04-14T02:06:47.696Z,3.80
2023-04-14T02:09:17.908Z,3.40
2023-04-14T02:11:45.249Z,3.70
2023-04-14T02:14:15.233Z,4.40
2023-04-14T02:16:43.046Z,4.10
2023-04-14T02:19:10.426Z,3.60
2023-04-14T02:21:38.073Z,3.80
2023-04-14T02:24:05.430Z,3.80
2023-04-14T02:26:32.615Z,3.50
2023-04-14T02:29:12.437Z,3.50
2023-04-14T02:32:01.327Z,3.50
2023-04-14T02:34:31.147Z,3.80
2023-04-14T02:37:04.331Z,3.70
2023-04-14T02:39:41.467Z,4.70
2023-04-14T02:42:16.079Z,3.70
2023-04-14T02:44:51.854Z,3.70
2023-04-14T02:47:32.451Z,3.00
2023-04-14T02:50:01.297Z,3.30
2023-04-14T02:54:06.995Z,3.90
2023-04-14T02:56:35.591Z,3.50
2023-04-14T02:59:03.080Z,4.00
2023-04-14T03:01:31.505Z,4.00
2023-04-14T03:03:58.580Z,3.50
2023-04-14T03:06:26.548Z,4.10
2023-04-14T03:08:55.350Z,3.80
2023-04-14T03:11:26.035Z,3.40
2023-04-14T03:13:54.769Z,3.30
2023-04-14T03:16:22.386Z,4.20
2023-04-14T03:18:49.696Z,3.60
2023-04-14T03:21:21.147Z,3.80
2023-04-14T03:23:48.638Z,3.60
2023-04-14T03:26:18.666Z,4.40
2023-04-14T03:28:48.381Z,3.70
2023-04-14T03:31:16.672Z,3.90
2023-04-14T03:33:46.259Z,3.40
2023-04-14T03:36:15.873Z,3.80
2023-04-14T03:38:43.341Z,3.50
2023-04-14T03:41:10.418Z,3.50
2023-04-14T03:43:38.162Z,3.70
2023-04-14T03:46:07.546Z,3.30
2023-04-14T03:48:38.814Z,3.50
2023-04-14T03:51:09.246Z,3.90
2023-04-14T03:53:37.206Z,3.60
2023-04-14T03:56:05.091Z,3.80
2023-04-14T03:58:33.451Z,3.30
2023-04-14T04:01:02.008Z,3.90
2023-04-14T04:03:29.741Z,3.80
2023-04-14T04:05:56.961Z,3.80
2023-04-14T04:08:26.363Z,3.60
2023-04-14T04:10:57.629Z,3.40
2023-04-14T04:13:25.490Z,3.90
2023-04-14T04:15:52.885Z,3.90
2023-04-14T04:18:20.978Z,3.20
2023-04-14T04:20:48.196Z,3.20
2023-04-14T04:23:17.666Z,3.40
2023-04-14T04:25:44.735Z,4.30
2023-04-14T04:28:12.202Z,4.00
2023-04-14T04:30:40.730Z,4.30
2023-04-14T04:33:08.615Z,4.40
2023-04-14T04:35:36.519Z,4.30
2023-04-14T04:38:05.217Z,3.60
2023-04-14T04:40:38.759Z,3.60
2023-04-14T04:43:06.023Z,4.00
2023-04-14T04:45:44.403Z,3.80
2023-04-14T04:48:11.375Z,3.70
2023-04-14T04:50:38.297Z,4.00
2023-04-14T04:53:05.126Z,4.40
2023-04-14T04:55:31.968Z,4.40
2023-04-14T04:57:58.817Z,4.10
2023-04-14T05:00:26.802Z,4.00
2023-04-14T05:02:53.750Z,4.20
2023-04-14T05:05:20.845Z,4.40
2023-04-14T05:07:47.741Z,3.50
2023-04-14T05:10:14.574Z,3.90
2023-04-14T05:12:44.095Z,3.50
2023-04-14T05:15:11.492Z,4.20
2023-04-14T05:17:40.701Z,5.20
2023-04-14T05:20:08.541Z,4.40
2023-04-14T05:22:35.377Z,4.70
2023-04-14T05:25:02.225Z,4.80
2023-04-14T05:27:29.070Z,4.30
2023-04-14T05:29:55.925Z,4.20
2023-04-14T05:32:22.721Z,4.80
2023-04-14T05:34:49.817Z,4.80
2023-04-14T05:37:17.802Z,4.80
2023-04-14T05:39:45.136Z,3.90
2023-04-14T05:42:12.202Z,4.30
2023-04-14T05:44:39.047Z,4.90
2023-04-14T05:47:08.350Z,4.90
2023-04-14T05:49:35.206Z,6.00
2023-04-14T05:52:02.251Z,5.20
2023-04-14T05:54:29.214Z,5.20
2023-04-14T05:56:57.691Z,5.10
2023-04-14T05:59:27.407Z,4.90
2023-04-14T06:01:54.345Z,5.40
2023-04-14T06:04:21.485Z,4.70
2023-04-14T06:06:48.399Z,4.60
2023-04-14T06:09:15.334Z,5.30
2023-04-14T06:11:42.217Z,5.40
2023-04-14T06:14:09.348Z,5.10
2023-04-14T06:16:36.213Z,5.30
2023-04-14T06:19:03.948Z,4.80
2023-04-14T06:21:31.892Z,5.70
2023-04-14T06:23:58.630Z,5.20
2023-04-14T06:26:25.960Z,5.30
2023-04-14T06:28:53.864Z,5.40
2023-04-14T06:31:21.065Z,5.10
2023-04-14T06:33:48.367Z,4.80
2023-04-14T06:36:18.328Z,4.80
2023-04-14T06:38:45.538Z,5.60
2023-04-14T06:41:12.393Z,5.60
2023-04-14T06:43:39.252Z,5.10
2023-04-14T06:46:06.070Z,5.40
2023-04-14T06:48:33.079Z,4.80
2023-04-14T06:50:59.875Z,4.50
2023-04-14T06:53:26.676Z,4.50
2023-04-14T06:55:59.771Z,4.80
2023-04-14T06:58:30.220Z,4.70
2023-04-14T07:00:58.511Z,4.50
2023-04-14T07:03:26.162Z,4.50
2023-04-14T07:05:53.562Z,5.10
2023-04-14T07:08:21.550Z,5.60
2023-04-14T07:10:48.594Z,4.90
2023-04-14T07:13:15.741Z,5.30
2023-04-14T07:15:47.923Z,5.30
2023-04-14T07:18:15.382Z,4.90
2023-04-14T07:20:42.272Z,4.60
2023-04-14T07:23:09.453Z,5.30
2023-04-14T07:25:39.218Z,4.70
2023-04-14T07:28:08.598Z,4.40
2023-04-14T07:30:35.433Z,4.10
2023-04-14T07:33:02.833Z,4.90
2023-04-14T07:35:30.450Z,4.60
2023-04-14T07:37:57.312Z,4.10
2023-04-14T07:40:24.356Z,5.10
2023-04-14T07:42:51.299Z,3.90
2023-04-14T07:45:18.715Z,4.80
2023-04-14T07:47:46.012Z,4.20
2023-04-14T07:50:13.072Z,4.10
2023-04-14T07:52:39.912Z,3.40
2023-04-14T07:55:06.969Z,3.10
2023-04-14T07:57:34.964Z,3.40
2023-04-14T08:00:02.378Z,3.60
2023-04-14T08:02:29.286Z,4.50
2023-04-14T08:04:56.342Z,3.30
2023-04-14T08:07:23.157Z,3.20
2023-04-14T08:09:52.242Z,2.90
2023-04-14T08:12:18.992Z,2.70
2023-04-14T08:14:47.876Z,2.90
2023-04-14T08:17:14.914Z,3.00
2023-04-14T08:19:41.689Z,3.40
2023-04-14T08:22:08.514Z,3.40
2023-04-14T08:24:37.607Z,3.60
2023-04-14T08:27:04.672Z,3.20
2023-04-14T08:29:31.401Z,3.50
2023-04-14T08:31:58.323Z,2.60
2023-04-14T08:34:28.465Z,3.40
2023-04-14T08:36:56.617Z,2.90
2023-04-14T08:39:23.438Z,3.90
2023-04-14T08:41:50.986Z,3.10
2023-04-14T08:44:17.873Z,3.00
2023-04-14T08:46:45.884Z,3.70
2023-04-14T08:49:18.546Z,3.40
2023-04-14T08:51:45.871Z,3.20
2023-04-14T08:54:13.109Z,3.40
2023-04-14T08:56:41.474Z,2.70
2023-04-14T08:59:10.299Z,3.20
2023-04-14T09:01:39.219Z,1.70
2023-04-14T09:04:10.166Z,2.00
2023-04-14T09:06:37.516Z,2.40
2023-04-14T09:09:08.950Z,2.20
2023-04-14T09:11:36.575Z,2.10
2023-04-14T09:14:04.576Z,2.00
2023-04-14T09:16:32.444Z,2.20
2023-04-14T09:19:07.574Z,2.30
2023-04-14T09:21:52.923Z,2.20
2023-04-14T09:24:31.229Z,2.00
2023-04-14T09:27:03.766Z,1.90
2023-04-14T09:29:32.182Z,2.10
2023-04-14T09:31:59.771Z,1.70
2023-04-14T09:34:26.999Z,2.00
2023-04-14T09:37:11.189Z,2.00
2023-04-14T09:39:49.561Z,1.80
2023-04-14T09:42:17.396Z,1.60
2023-04-14T09:44:56.786Z,2.10
2023-04-14T09:47:24.958Z,1.30
2023-04-14T09:50:03.616Z,1.40
2023-04-14T09:52:40.925Z,1.40
2023-04-14T09:57:41.617Z,1.60
2023-04-14T10:00:22.617Z,1.60
2023-04-14T10:02:58.178Z,1.00
2023-04-14T10:05:29.306Z,2.30
2023-04-14T10:08:07.588Z,1.20
2023-04-14T10:10:36.682Z,1.10
2023-04-14T10:13:03.854Z,1.30
2023-04-14T10:15:31.723Z,1.30
2023-04-14T10:17:58.527Z,1.10
2023-04-14T10:20:25.417Z,1.20
2023-04-14T10:22:52.969Z,1.20
2023-04-14T10:25:20.344Z,1.10
2023-04-14T10:27:48.003Z,1.20
2023-04-14T10:30:14.835Z,2.00
2023-04-14T10:32:42.949Z,1.40
2023-04-14T10:35:17.752Z,1.10
2023-04-14T10:37:52.090Z,1.30
2023-04-14T10:40:19.178Z,1.30
2023-04-14T10:42:56.493Z,1.20
2023-04-14T10:45:23.685Z,1.20
2023-04-14T10:47:51.010Z,1.10
2023-04-14T10:50:19.581Z,1.10
2023-04-14T10:52:56.686Z,1.00
2023-04-14T10:55:28.238Z,1.00
2023-04-14T10:58:07.266Z,1.00
2023-04-14T11:00:38.711Z,1.10
2023-04-14T11:03:13.082Z,1.30
2023-04-14T11:05:58.677Z,1.10
2023-04-14T11:08:27.335Z,1.20
2023-04-14T11:11:05.098Z,1.00
2023-04-14T11:13:33.327Z,1.40
2023-04-14T11:16:09.998Z,1.40
2023-04-14T11:18:42.723Z,1.20
2023-04-14T11:21:14.414Z,1.20
2023-04-14T11:23:41.872Z,1.20
2023-04-14T11:26:10.479Z,1.50
2023-04-14T11:28:39.528Z,1.30
2023-04-14T11:31:08.554Z,1.30
2023-04-14T11:33:37.853Z,1.50
2023-04-14T11:36:06.566Z,1.80
2023-04-14T11:38:40.235Z,1.40
2023-04-14T11:41:09.482Z,1.40
2023-04-14T11:43:38.128Z,1.70
2023-04-14T11:46:06.192Z,1.50
2023-04-14T11:48:32.974Z,1.60
2023-04-14T11:51:03.764Z,1.90
2023-04-14T11:53:31.456Z,1.80
2023-04-14T11:55:58.270Z,1.70
2023-04-14T11:58:26.794Z,1.70
2023-04-14T12:00:56.207Z,1.90
2023-04-14T12:03:31.972Z,1.80
2023-04-14T12:06:01.999Z,1.80
2023-04-14T12:08:33.270Z,1.50
2023-04-14T12:11:13.680Z,1.40
2023-04-14T12:13:41.923Z,1.80
2023-04-14T12:16:09.583Z,1.80
2023-04-14T12:18:39.729Z,1.50
2023-04-14T12:21:09.742Z,1.60
2023-04-14T12:23:42.502Z,1.80
2023-04-14T12:26:11.971Z,1.90
2023-04-14T12:28:42.363Z,1.40
2023-04-14T12:31:10.168Z,1.50
2023-04-14T12:33:37.308Z,1.50
2023-04-14T12:36:06.520Z,1.50
2023-04-14T12:38:34.388Z,2.00
2023-04-14T12:41:01.652Z,1.50
2023-04-14T12:43:34.858Z,1.50
2023-04-14T12:46:06.393Z,1.80
2023-04-14T12:48:48.707Z,1.60
2023-04-14T12:51:19.833Z,2.00
2023-04-14T12:53:49.467Z,1.70
2023-04-14T12:56:22.299Z,1.60
2023-04-14T12:58:49.632Z,1.70
2023-04-14T13:01:18.943Z,1.70
2023-04-14T13:03:56.080Z,1.80
2023-04-14T13:06:24.573Z,1.70
2023-04-14T13:08:56.212Z,1.80
2023-04-14T13:11:24.246Z,2.10
2023-04-14T13:13:54.074Z,1.50
2023-04-14T13:16:22.560Z,1.50
2023-04-14T13:18:53.153Z,1.70
2023-04-14T13:21:20.091Z,1.40
2023-04-14T13:23:46.923Z,1.60
2023-04-14T13:26:13.888Z,1.70
2023-04-14T13:28:40.748Z,1.80
2023-04-14T13:31:07.995Z,1.80
2023-04-14T13:33:34.912Z,2.20
2023-04-14T13:36:04.326Z,1.50
2023-04-14T13:38:31.838Z,2.00
2023-04-14T13:41:01.393Z,1.50
2023-04-14T13:43:28.378Z,1.40
2023-04-14T13:45:58.698Z,1.70
2023-04-14T13:48:27.501Z,1.60
2023-04-14T13:50:55.805Z,2.10
2023-04-14T13:53:22.963Z,1.60
2023-04-14T13:55:52.204Z,1.80
2023-04-14T13:58:19.167Z,2.00
2023-04-14T14:00:48.147Z,1.40
2023-04-14T14:03:15.201Z,1.70
2023-04-14T14:05:45.638Z,1.50
2023-04-14T14:08:17.499Z,1.40
2023-04-14T14:10:44.364Z,1.40
2023-04-14T14:13:11.295Z,1.40
2023-04-14T14:15:38.870Z,2.30
2023-04-14T14:18:06.912Z,1.60
2023-04-14T14:20:33.841Z,1.30
2023-04-14T14:23:00.894Z,1.80
2023-04-14T14:25:27.866Z,1.20
2023-04-14T14:27:54.770Z,1.60
2023-04-14T14:30:21.664Z,1.40
2023-04-14T14:32:48.540Z,1.40
2023-04-14T14:35:16.631Z,1.70
2023-04-14T14:37:45.210Z,1.20
2023-04-14T14:40:12.868Z,1.80
2023-04-14T14:42:39.615Z,1.50
2023-04-14T14:45:07.426Z,1.30
2023-04-14T14:47:36.692Z,1.20
2023-04-14T14:50:06.085Z,1.20
2023-04-14T14:52:35.393Z,1.40
2023-04-14T14:55:03.612Z,1.30
2023-04-14T14:57:34.534Z,1.30
2023-04-14T15:00:07.848Z,1.30
2023-04-14T15:02:34.785Z,1.50
2023-04-14T15:05:01.804Z,1.60
2023-04-14T15:07:28.625Z,0.90
2023-04-14T15:09:55.568Z,1.40
2023-04-14T15:12:22.750Z,1.70
2023-04-14T15:14:49.535Z,0.90
2023-04-14T15:17:16.957Z,1.00
2023-04-14T15:19:44.901Z,1.30
2023-04-14T15:22:11.693Z,1.40
2023-04-14T15:24:38.556Z,0.80
2023-04-14T15:27:06.026Z,1.00
2023-04-14T15:29:33.067Z,1.00
2023-04-14T15:32:00.038Z,0.80
2023-04-14T15:34:27.931Z,1.30
2023-04-14T15:36:54.964Z,1.10
2023-04-14T15:39:21.740Z,1.10
2023-04-14T15:41:50.515Z,1.10
2023-04-14T15:44:18.270Z,1.40
2023-04-14T15:46:44.995Z,1.10
2023-04-14T15:49:11.940Z,0.90
2023-04-14T15:51:38.810Z,0.90
2023-04-14T15:54:06.378Z,0.80
2023-04-14T15:56:33.199Z,0.80
2023-04-14T15:58:59.992Z,0.90
2023-04-14T16:01:27.005Z,1.40
2023-04-14T16:03:54.036Z,0.80
2023-04-14T16:06:21.014Z,0.80
2023-04-14T16:08:47.782Z,1.40
2023-04-14T16:11:17.756Z,1.20
2023-04-14T16:13:47.901Z,1.20
2023-04-14T16:16:18.283Z,1.20
2023-04-14T16:18:45.388Z,1.10
2023-04-14T16:21:12.232Z,1.30
2023-04-14T16:23:38.992Z,1.00
2023-04-14T16:26:05.850Z,1.10
2023-04-14T16:28:33.172Z,1.30
2023-04-14T16:31:03.374Z,1.10
2023-04-14T16:33:32.693Z,1.40
2023-04-14T16:36:07.791Z,1.30
2023-04-14T16:38:34.714Z,1.00
2023-04-14T16:41:02.378Z,1.30
2023-04-14T16:43:29.363Z,1.40
2023-04-14T16:46:03.819Z,1.00
2023-04-14T16:48:31.521Z,1.00
2023-04-14T16:51:04.662Z,1.00
2023-04-14T16:53:31.684Z,1.20
2023-04-14T16:56:11.458Z,1.10
2023-04-14T16:58:39.092Z,1.00
2023-04-14T17:01:06.652Z,1.70
2023-04-14T17:03:34.175Z,2.00
2023-04-14T17:06:01.476Z,1.40
2023-04-14T17:08:29.714Z,1.30
2023-04-14T17:10:57.006Z,1.50
2023-04-14T17:13:23.916Z,1.20
2023-04-14T17:15:58.822Z,1.10
2023-04-14T17:18:33.719Z,1.00
2023-04-14T17:21:00.702Z,1.70
2023-04-14T17:23:27.754Z,1.20
2023-04-14T17:25:55.554Z,1.60
2023-04-14T17:28:26.901Z,0.90
2023-04-14T17:30:53.948Z,1.10
2023-04-14T17:33:21.140Z,1.30
2023-04-14T17:35:48.263Z,1.10
2023-04-14T17:38:17.327Z,1.20
2023-04-14T17:40:44.301Z,1.30
2023-04-14T17:43:11.059Z,1.00
2023-04-14T17:45:40.213Z,1.60
2023-04-14T17:48:08.210Z,1.40
2023-04-14T17:50:35.919Z,1.40
2023-04-14T17:53:02.849Z,1.50
2023-04-14T17:55:29.792Z,1.60
2023-04-14T17:57:56.746Z,1.60
2023-04-14T18:00:23.999Z,1.60
2023-04-14T18:02:51.033Z,1.90
2023-04-14T18:05:18.160Z,1.40
2023-04-14T18:07:44.948Z,1.40
2023-04-14T18:10:12.184Z,1.90
2023-04-14T18:12:39.104Z,1.30
2023-04-14T18:15:07.425Z,1.40
2023-04-14T18:17:36.638Z,1.80
2023-04-14T18:20:04.520Z,1.90
2023-04-14T18:22:31.764Z,2.10
2023-04-14T18:24:58.926Z,1.70
2023-04-14T18:29:55.603Z,1.60
2023-04-14T18:32:25.412Z,1.80
2023-04-14T18:34:52.970Z,1.60
2023-04-14T18:37:19.700Z,1.80
2023-04-14T18:39:49.746Z,2.00
2023-04-14T18:42:17.204Z,1.80
2023-04-14T18:44:44.084Z,2.20
2023-04-14T18:47:13.772Z,1.70
2023-04-14T18:49:40.617Z,3.00
2023-04-14T18:52:07.581Z,2.00
2023-04-14T18:54:34.501Z,1.80
2023-04-14T18:57:01.359Z,2.10
2023-04-14T18:59:28.720Z,1.70
2023-04-14T19:01:55.760Z,2.00
2023-04-14T19:04:22.768Z,1.80
2023-04-14T19:06:49.671Z,1.70
2023-04-14T19:09:16.613Z,2.10
2023-04-14T19:11:45.542Z,2.50
2023-04-14T19:14:12.758Z,2.00
2023-04-14T19:16:42.811Z,2.10
2023-04-14T19:19:10.671Z,2.30
2023-04-14T19:21:37.585Z,2.50
2023-04-14T19:24:07.205Z,2.70
2023-04-14T19:26:37.710Z,2.40
2023-04-14T19:29:04.892Z,2.60
2023-04-14T19:31:33.519Z,2.40
2023-04-14T19:34:00.635Z,1.90
2023-04-14T19:36:27.801Z,2.30
2023-04-14T19:38:54.638Z,3.20
2023-04-14T19:41:21.610Z,2.40
2023-04-14T19:43:48.568Z,2.60
2023-04-14T19:46:18.177Z,2.80
2023-04-14T19:48:45.616Z,2.60
2023-04-14T19:51:12.974Z,3.10
2023-04-14T19:53:39.798Z,3.20
2023-04-14T19:56:07.489Z,2.90
2023-04-14T19:58:34.471Z,2.80
2023-04-14T20:01:03.745Z,2.70
2023-04-14T20:03:33.080Z,2.20
2023-04-14T20:06:04.530Z,2.40
2023-04-14T20:08:32.320Z,2.60
2023-04-14T20:10:59.548Z,2.70
2023-04-14T20:13:30.465Z,2.90
2023-04-14T20:15:57.414Z,3.30
2023-04-14T20:18:26.033Z,2.90
2023-04-14T20:20:54.999Z,3.80
2023-04-14T20:23:22.012Z,3.40
2023-04-14T20:25:53.257Z,3.20
2023-04-14T20:28:21.685Z,3.70
2023-04-14T20:30:52.793Z,2.70
2023-04-14T20:33:21.622Z,3.00
2023-04-14T20:35:49.385Z,3.50
2023-04-14T20:38:16.337Z,2.80
2023-04-14T20:40:43.800Z,3.00
2023-04-14T20:43:11.012Z,3.10
2023-04-14T20:45:38.014Z,3.30
2023-04-14T20:48:06.186Z,3.30
2023-04-14T20:50:33.745Z,3.00
2023-04-14T20:53:00.802Z,3.70
2023-04-14T20:55:30.980Z,3.20
2023-04-14T20:57:58.205Z,3.90
2023-04-14T21:00:25.353Z,3.70
2023-04-14T21:02:52.569Z,3.30
2023-04-14T21:05:22.038Z,3.70
2023-04-14T21:07:48.941Z,2.90
2023-04-14T21:10:15.784Z,3.40
2023-04-14T21:15:29.426Z,3.00
2023-04-14T21:15:54.614Z,3.90
2023-04-14T21:18:16.412Z,4.10
2023-04-14T21:20:43.558Z,3.80
2023-04-14T21:23:10.448Z,3.40
2023-04-14T21:25:39.565Z,3.10
2023-04-14T21:28:06.702Z,4.00
2023-04-14T21:30:34.108Z,4.10
2023-04-14T21:33:01.046Z,3.30
2023-04-14T21:35:30.520Z,3.20
2023-04-14T21:37:57.873Z,4.00
2023-04-14T21:40:28.434Z,3.70
2023-04-14T21:42:55.300Z,3.70
2023-04-14T21:45:22.207Z,3.50
2023-04-14T21:47:49.217Z,3.20
2023-04-14T21:50:17.384Z,3.80
2023-04-14T21:52:44.296Z,3.20
2023-04-14T21:55:14.111Z,3.50
2023-04-14T21:57:44.341Z,3.80
2023-04-14T22:00:18.082Z,4.00
2023-04-14T22:02:45.772Z,3.70
2023-04-14T22:05:13.548Z,3.70
2023-04-14T22:07:41.274Z,4.00
2023-04-14T22:10:08.666Z,4.30
2023-04-14T22:12:36.247Z,3.40
2023-04-14T22:15:08.835Z,3.90
2023-04-14T22:17:37.568Z,4.30
2023-04-14T22:20:06.409Z,4.80
2023-04-14T22:22:36.243Z,5.00
2023-04-14T22:25:04.362Z,4.20
2023-04-14T22:27:33.101Z,4.40
2023-04-14T22:30:02.904Z,5.10
2023-04-14T22:32:32.494Z,4.20
2023-04-14T22:34:59.577Z,4.40
2023-04-14T22:37:26.915Z,4.00
2023-04-14T22:39:53.874Z,3.90
2023-04-14T22:42:20.721Z,4.80
2023-04-14T22:44:49.618Z,4.30
2023-04-14T22:47:16.472Z,4.00
2023-04-14T22:49:43.323Z,4.10
2023-04-14T22:52:10.264Z,5.00
2023-04-14T22:54:37.140Z,4.80
2023-04-14T22:57:04.630Z,5.00
2023-04-14T22:59:32.173Z,4.30
2023-04-14T23:01:59.043Z,4.70
2023-04-14T23:04:26.785Z,5.10
2023-04-14T23:06:53.709Z,4.90
2023-04-14T23:09:21.261Z,4.20
2023-04-14T23:11:48.553Z,4.40
2023-04-14T23:14:15.334Z,4.90
2023-04-14T23:16:42.656Z,4.00
2023-04-14T23:19:09.536Z,4.40
2023-04-14T23:21:36.255Z,4.50
2023-04-14T23:24:03.044Z,4.40
2023-04-14T23:26:31.138Z,4.50
2023-04-14T23:28:57.980Z,5.10
2023-04-14T23:31:24.865Z,4.70
2023-04-14T23:33:53.021Z,4.80
2023-04-14T23:36:20.305Z,4.50
2023-04-14T23:38:47.132Z,4.10
2023-04-14T23:41:13.976Z,4.20
2023-04-14T23:43:40.811Z,4.40
2023-04-14T23:46:07.654Z,4.40
2023-04-14T23:48:34.504Z,4.60
2023-04-14T23:51:15.855Z,4.90
2023-04-14T23:53:44.976Z,4.40
2023-04-14T23:56:11.804Z,4.50
2023-04-14T23:58:39.191Z,4.50
